createdAt,value
2018-05-24T00:01:20.931Z,97.30
2018-05-24T00:03:49.076Z,96.90
2018-05-24T00:06:17.179Z,96.90
2018-05-24T00:08:45.204Z,96.90
2018-05-24T00:11:13.262Z,96.90
2018-05-24T00:13:42.107Z,97.10
2018-05-24T00:16:10.187Z,97.10
2018-05-24T00:18:39.117Z,97.10
2018-05-24T00:21:08.014Z,97.00
2018-05-24T00:23:36.871Z,97.20
2018-05-24T00:26:04.876Z,97.20
2018-05-24T00:28:33.624Z,97.40
2018-05-24T00:31:01.701Z,97.50
2018-05-24T00:33:29.756Z,97.30
2018-05-24T00:35:57.885Z,97.30
2018-05-24T00:38:25.914Z,97.10
2018-05-24T00:40:54.019Z,96.90
2018-05-24T00:43:22.843Z,97.50
2018-05-24T00:45:50.931Z,97.50
2018-05-24T00:48:19.700Z,98.00
2018-05-24T00:50:47.793Z,98.20
2018-05-24T00:53:15.947Z,98.50
2018-05-24T00:55:44.785Z,98.90
2018-05-24T00:58:12.910Z,98.90
2018-05-24T01:00:41.117Z,98.90
2018-05-24T01:03:09.262Z,99.10
2018-05-24T01:05:37.305Z,98.80
2018-05-24T01:08:06.000Z,98.90
2018-05-24T01:10:34.000Z,98.90
2018-05-24T01:13:02.043Z,98.90
2018-05-24T01:15:30.179Z,98.70
2018-05-24T01:17:58.216Z,98.60
2018-05-24T01:20:26.294Z,98.60
2018-05-24T01:22:54.351Z,98.60
2018-05-24T01:25:22.426Z,98.70
2018-05-24T01:27:50.462Z,98.60
2018-05-24T01:30:19.360Z,98.70
2018-05-24T01:32:47.406Z,98.60
2018-05-24T01:35:16.250Z,98.50
2018-05-24T01:37:50.795Z,98.50
2018-05-24T01:40:18.890Z,98.50
2018-05-24T01:42:47.713Z,98.90
2018-05-24T01:45:16.720Z,98.70
2018-05-24T01:47:44.813Z,98.60
2018-05-24T01:50:12.923Z,98.70
2018-05-24T01:52:41.760Z,98.60
2018-05-24T01:55:09.867Z,98.60
2018-05-24T01:57:37.859Z,98.70
2018-05-24T02:00:06.713Z,99.10
2018-05-24T02:02:34.719Z,98.80
2018-05-24T02:05:03.600Z,98.80
2018-05-24T02:07:31.635Z,98.80
2018-05-24T02:09:59.734Z,98.70
2018-05-24T02:12:27.780Z,98.70
2018-05-24T02:14:55.859Z,98.70
2018-05-24T02:17:23.902Z,98.70
2018-05-24T02:19:52.022Z,98.70
2018-05-24T02:22:20.140Z,98.70
2018-05-24T02:24:48.195Z,98.60
2018-05-24T02:27:17.092Z,98.70
2018-05-24T02:29:45.987Z,98.60
2018-05-24T02:32:14.046Z,98.60
2018-05-24T02:34:42.907Z,98.40
2018-05-24T02:37:11.000Z,98.40
2018-05-24T02:39:39.842Z,98.90
2018-05-24T02:42:07.934Z,98.90
2018-05-24T02:44:36.015Z,99.10
2018-05-24T02:47:04.075Z,99.10
2018-05-24T02:49:32.096Z,99.20
2018-05-24T02:52:01.009Z,98.50
2018-05-24T02:54:29.092Z,98.50
2018-05-24T02:56:57.134Z,97.90
2018-05-24T02:59:25.170Z,97.90
2018-05-24T03:01:53.213Z,97.80
2018-05-24T03:04:21.237Z,97.90
2018-05-24T03:06:50.017Z,98.70
2018-05-24T03:09:18.811Z,99.10
2018-05-24T03:11:47.679Z,99.50
2018-05-24T03:14:15.811Z,99.50
2018-05-24T03:16:43.873Z,99.50
2018-05-24T03:19:11.948Z,99.30
2018-05-24T03:21:40.223Z,99.40
2018-05-24T03:24:08.243Z,99.90
2018-05-24T03:26:36.282Z,99.90
2018-05-24T03:29:05.092Z,99.90
2018-05-24T03:31:33.126Z,99.90
2018-05-24T03:34:01.342Z,99.90
2018-05-24T03:36:29.413Z,99.90
2018-05-24T03:38:57.504Z,99.90
2018-05-24T03:41:25.553Z,99.90
2018-05-24T03:43:54.361Z,99.90
2018-05-24T03:46:23.163Z,99.90
2018-05-24T03:48:52.026Z,99.90
2018-05-24T03:51:20.086Z,99.90
2018-05-24T03:53:48.834Z,99.90
2018-05-24T03:56:17.653Z,99.90
2018-05-24T03:58:45.767Z,99.90
2018-05-24T04:01:25.606Z,99.90
2018-05-24T04:03:53.656Z,99.90
2018-05-24T04:06:21.703Z,99.90
2018-05-24T04:08:49.735Z,99.90
2018-05-24T04:11:17.858Z,99.90
2018-05-24T04:13:45.964Z,99.90
2018-05-24T04:16:14.024Z,99.90
2018-05-24T04:18:42.073Z,99.90
2018-05-24T04:21:11.232Z,99.90
2018-05-24T04:23:40.043Z,99.90
2018-05-24T04:26:08.144Z,99.90
2018-05-24T04:28:36.257Z,99.90
2018-05-24T04:31:04.440Z,99.90
2018-05-24T04:33:33.362Z,99.90
2018-05-24T04:36:01.454Z,99.90
2018-05-24T04:38:29.621Z,99.90
2018-05-24T04:40:57.889Z,99.90
2018-05-24T04:43:25.962Z,99.90
2018-05-24T04:45:53.989Z,99.90
2018-05-24T04:48:22.871Z,99.90
2018-05-24T04:50:51.099Z,99.90
2018-05-24T04:53:19.739Z,99.90
2018-05-24T04:55:47.895Z,99.90
2018-05-24T04:58:18.897Z,99.90
2018-05-24T05:00:46.998Z,99.90
2018-05-24T05:03:15.146Z,99.90
2018-05-24T05:05:43.218Z,99.90
2018-05-24T05:08:11.361Z,99.90
2018-05-24T05:10:49.666Z,99.90
2018-05-24T05:13:18.483Z,99.90
2018-05-24T05:15:46.682Z,99.90
2018-05-24T05:18:14.743Z,99.90
2018-05-24T05:20:42.856Z,99.90
2018-05-24T05:23:11.282Z,99.90
2018-05-24T05:25:40.082Z,99.90
2018-05-24T05:28:08.124Z,99.90
2018-05-24T05:30:37.015Z,99.90
2018-05-24T05:33:05.139Z,99.90
2018-05-24T05:35:33.131Z,99.90
2018-05-24T05:38:01.392Z,99.90
2018-05-24T05:40:29.477Z,99.90
2018-05-24T05:42:57.849Z,99.90
2018-05-24T05:45:25.969Z,99.90
2018-05-24T05:47:54.834Z,99.90
2018-05-24T05:50:23.008Z,99.90
2018-05-24T05:52:51.207Z,99.90
2018-05-24T05:55:20.058Z,99.90
2018-05-24T05:57:48.069Z,99.90
2018-05-24T06:00:16.092Z,99.90
2018-05-24T06:02:44.267Z,99.90
2018-05-24T06:05:12.467Z,99.90
2018-05-24T06:07:40.701Z,99.90
2018-05-24T06:10:08.854Z,99.90
2018-05-24T06:12:37.027Z,99.90
2018-05-24T06:15:05.247Z,99.90
2018-05-24T06:17:33.410Z,99.90
2018-05-24T06:20:01.631Z,99.90
2018-05-24T06:22:30.477Z,99.90
2018-05-24T06:24:59.788Z,99.90
2018-05-24T06:27:27.928Z,99.90
2018-05-24T06:30:22.022Z,99.90
2018-05-24T06:33:02.664Z,99.90
2018-05-24T06:35:30.804Z,99.50
2018-05-24T06:37:58.986Z,99.80
2018-05-24T06:40:27.973Z,99.40
2018-05-24T06:42:56.117Z,99.30
2018-05-24T06:45:24.351Z,99.50
2018-05-24T06:47:52.505Z,99.90
2018-05-24T06:50:21.654Z,99.50
2018-05-24T06:56:16.749Z,98.80
2018-05-24T06:58:47.947Z,98.40
2018-05-24T07:01:17.561Z,97.80
2018-05-24T07:03:47.917Z,98.30
2018-05-24T07:06:19.378Z,97.70
2018-05-24T07:08:50.194Z,97.70
2018-05-24T07:11:20.593Z,98.60
2018-05-24T07:13:53.017Z,98.70
2018-05-24T07:16:21.404Z,98.30
2018-05-24T07:18:49.537Z,98.30
2018-05-24T07:21:17.683Z,98.30
2018-05-24T07:23:45.826Z,97.10
2018-05-24T07:26:13.905Z,98.10
2018-05-24T07:28:42.054Z,96.70
2018-05-24T07:31:10.878Z,97.50
2018-05-24T07:33:38.959Z,97.50
2018-05-24T07:36:07.452Z,97.50
2018-05-24T07:38:35.677Z,97.80
2018-05-24T07:41:03.824Z,96.70
2018-05-24T07:43:31.914Z,97.10
2018-05-24T07:46:00.780Z,96.80
2018-05-24T07:48:28.905Z,96.70
2018-05-24T07:50:57.041Z,97.30
2018-05-24T07:53:25.851Z,96.50
2018-05-24T07:55:53.979Z,96.50
2018-05-24T07:58:22.100Z,96.40
2018-05-24T08:00:50.393Z,96.30
2018-05-24T08:03:18.710Z,96.80
2018-05-24T08:05:46.891Z,96.10
2018-05-24T08:08:17.798Z,96.10
2018-05-24T08:10:45.872Z,95.60
2018-05-24T08:13:13.962Z,95.50
2018-05-24T08:15:42.123Z,95.40
2018-05-24T08:18:10.223Z,95.40
2018-05-24T08:20:38.719Z,95.40
2018-05-24T08:23:07.542Z,95.10
2018-05-24T08:25:35.762Z,95.10
2018-05-24T08:28:03.955Z,94.90
2018-05-24T08:30:33.843Z,96.20
2018-05-24T08:33:01.927Z,96.00
2018-05-24T08:35:30.016Z,95.70
2018-05-24T08:37:58.879Z,96.20
2018-05-24T08:40:27.035Z,96.20
2018-05-24T08:42:55.476Z,96.00
2018-05-24T08:45:24.335Z,94.70
2018-05-24T08:47:52.518Z,94.70
2018-05-24T08:50:20.732Z,95.40
2018-05-24T08:52:48.798Z,93.30
2018-05-24T08:55:16.899Z,94.10
2018-05-24T08:57:44.950Z,93.60
2018-05-24T09:00:13.020Z,94.00
2018-05-24T09:02:41.075Z,94.10
2018-05-24T09:05:09.905Z,93.60
2018-05-24T09:07:37.967Z,93.60
2018-05-24T09:10:06.059Z,93.90
2018-05-24T09:12:35.233Z,93.10
2018-05-24T09:15:03.378Z,94.70
2018-05-24T09:17:32.278Z,93.90
2018-05-24T09:20:00.434Z,93.90
2018-05-24T09:22:29.347Z,93.90
2018-05-24T09:24:57.404Z,94.00
2018-05-24T09:27:26.364Z,93.40
2018-05-24T09:29:54.457Z,93.30
2018-05-24T09:32:22.638Z,92.20
2018-05-24T09:34:51.519Z,93.50
2018-05-24T09:37:19.656Z,93.40
2018-05-24T09:39:47.670Z,90.00
2018-05-24T09:42:15.873Z,91.50
2018-05-24T09:44:44.058Z,92.20
2018-05-24T09:47:12.129Z,92.20
2018-05-24T09:49:40.234Z,91.50
2018-05-24T09:52:08.468Z,91.10
2018-05-24T09:54:36.639Z,90.60
2018-05-24T09:57:04.805Z,91.80
2018-05-24T09:59:33.643Z,91.90
2018-05-24T10:02:01.773Z,91.80
2018-05-24T10:04:30.777Z,90.70
2018-05-24T10:06:58.822Z,90.70
2018-05-24T10:09:27.585Z,91.90
2018-05-24T10:11:55.668Z,91.80
2018-05-24T10:14:23.711Z,90.90
2018-05-24T10:16:51.800Z,90.60
2018-05-24T10:19:19.968Z,89.90
2018-05-24T10:21:48.029Z,90.20
2018-05-24T10:24:16.059Z,90.30
2018-05-24T10:26:44.118Z,90.70
2018-05-24T10:29:12.895Z,90.20
2018-05-24T10:31:40.949Z,90.20
2018-05-24T10:34:09.024Z,91.80
2018-05-24T10:36:37.044Z,90.60
2018-05-24T10:39:06.032Z,91.30
2018-05-24T10:41:34.085Z,89.70
2018-05-24T10:44:03.063Z,90.80
2018-05-24T10:46:31.092Z,90.80
2018-05-24T10:48:59.118Z,90.90
2018-05-24T10:51:28.029Z,88.40
2018-05-24T10:53:56.038Z,88.30
2018-05-24T10:56:24.098Z,88.40
2018-05-24T10:58:52.158Z,90.70
2018-05-24T11:01:20.393Z,86.10
2018-05-24T11:03:48.535Z,88.50
2018-05-24T11:06:16.685Z,85.90
2018-05-24T11:08:44.746Z,83.50
2018-05-24T11:11:12.897Z,86.40
2018-05-24T11:13:41.689Z,87.40
2018-05-24T11:16:10.584Z,84.20
2018-05-24T11:18:39.359Z,88.50
2018-05-24T11:21:08.166Z,82.90
2018-05-24T11:23:36.937Z,83.80
2018-05-24T11:26:05.713Z,87.20
2018-05-24T11:28:33.813Z,88.10
2018-05-24T11:31:05.581Z,83.60
2018-05-24T11:33:33.578Z,83.60
2018-05-24T11:36:01.805Z,83.80
2018-05-24T11:38:30.647Z,82.80
2018-05-24T11:40:58.709Z,82.80
2018-05-24T11:43:26.973Z,84.10
2018-05-24T11:45:54.929Z,83.70
2018-05-24T11:48:23.762Z,86.40
2018-05-24T11:50:51.845Z,86.30
2018-05-24T11:53:19.955Z,86.20
2018-05-24T11:55:48.740Z,84.20
2018-05-24T11:58:17.584Z,81.30
2018-05-24T12:00:45.724Z,81.30
2018-05-24T12:03:13.820Z,85.30
2018-05-24T12:05:41.942Z,81.30
2018-05-24T12:08:10.058Z,84.30
2018-05-24T12:10:38.347Z,84.40
2018-05-24T12:13:06.381Z,84.10
2018-05-24T12:15:35.240Z,79.90
2018-05-24T12:18:03.593Z,79.90
2018-05-24T12:20:31.637Z,81.30
2018-05-24T12:23:00.227Z,81.90
2018-05-24T12:25:28.368Z,81.70
2018-05-24T12:27:57.452Z,80.80
2018-05-24T12:30:25.661Z,80.70
2018-05-24T12:32:54.734Z,82.80
2018-05-24T12:35:24.299Z,75.90
2018-05-24T12:37:52.461Z,75.90
2018-05-24T12:40:20.827Z,75.20
2018-05-24T12:42:49.119Z,77.00
2018-05-24T12:45:17.382Z,76.80
2018-05-24T12:47:45.877Z,78.90
2018-05-24T12:50:15.117Z,78.90
2018-05-24T12:52:43.225Z,78.30
2018-05-24T12:55:11.530Z,81.10
2018-05-24T12:57:40.252Z,80.30
2018-05-24T13:00:09.127Z,82.20
2018-05-24T13:02:37.208Z,83.00
2018-05-24T13:05:05.284Z,81.10
2018-05-24T13:07:33.416Z,85.80
2018-05-24T13:10:01.496Z,83.90
2018-05-24T13:12:29.581Z,80.50
2018-05-24T13:14:57.795Z,81.60
2018-05-24T13:17:28.642Z,81.00
2018-05-24T13:19:57.482Z,83.80
2018-05-24T13:22:25.646Z,83.80
2018-05-24T13:24:53.757Z,85.40
2018-05-24T13:27:21.912Z,86.20
2018-05-24T13:29:50.101Z,82.90
2018-05-24T13:32:18.230Z,82.60
2018-05-24T13:34:46.268Z,82.70
2018-05-24T13:37:15.118Z,84.30
2018-05-24T13:39:43.295Z,84.20
2018-05-24T13:42:11.488Z,82.40
2018-05-24T13:44:39.648Z,83.00
2018-05-24T13:47:07.789Z,88.60
2018-05-24T13:49:35.966Z,82.10
2018-05-24T13:52:04.080Z,82.00
2018-05-24T13:54:32.239Z,81.10
2018-05-24T13:57:00.340Z,79.20
2018-05-24T13:59:29.170Z,75.50
2018-05-24T14:01:57.308Z,75.40
2018-05-24T14:04:26.083Z,79.50
2018-05-24T14:06:54.129Z,79.40
2018-05-24T14:09:22.188Z,81.80
2018-05-24T14:11:50.314Z,80.00
2018-05-24T14:14:19.261Z,85.20
2018-05-24T14:16:47.430Z,85.00
2018-05-24T14:19:15.495Z,81.10
2018-05-24T14:21:43.572Z,82.70
2018-05-24T14:24:11.648Z,83.90
2018-05-24T14:26:39.692Z,85.90
2018-05-24T14:29:07.894Z,88.90
2018-05-24T14:31:35.989Z,90.90
2018-05-24T14:34:04.110Z,91.40
2018-05-24T14:36:32.183Z,91.30
2018-05-24T14:39:00.230Z,91.90
2018-05-24T14:41:29.387Z,92.20
2018-05-24T14:43:57.507Z,92.20
2018-05-24T14:46:26.403Z,92.10
2018-05-24T14:48:55.226Z,91.50
2018-05-24T14:51:23.380Z,91.40
2018-05-24T14:53:51.489Z,91.30
2018-05-24T14:56:19.570Z,91.20
2018-05-24T14:58:47.612Z,92.60
2018-05-24T15:01:15.647Z,92.00
2018-05-24T15:03:44.531Z,91.90
2018-05-24T15:06:13.450Z,87.50
2018-05-24T15:08:41.546Z,87.30
2018-05-24T15:11:10.415Z,87.80
2018-05-24T15:13:50.336Z,87.90
2018-05-24T15:16:18.389Z,88.90
2018-05-24T15:18:46.676Z,87.90
2018-05-24T15:21:14.745Z,87.50
2018-05-24T15:23:42.817Z,88.60
2018-05-24T15:26:10.881Z,90.00
2018-05-24T15:28:38.905Z,90.30
2018-05-24T15:31:06.999Z,90.30
2018-05-24T15:33:35.065Z,90.80
2018-05-24T15:36:03.173Z,91.00
2018-05-24T15:38:31.196Z,91.10
2018-05-24T15:40:59.301Z,90.90
2018-05-24T15:43:27.403Z,89.80
2018-05-24T15:45:56.184Z,90.00
2018-05-24T15:48:24.220Z,89.90
2018-05-24T15:50:52.285Z,89.80
2018-05-24T15:53:20.357Z,90.50
2018-05-24T15:55:49.042Z,90.00
2018-05-24T15:58:17.189Z,88.60
2018-05-24T16:00:45.344Z,90.10
2018-05-24T16:03:14.209Z,90.00
2018-05-24T16:05:42.272Z,90.00
2018-05-24T16:08:10.388Z,90.00
2018-05-24T16:10:39.284Z,90.10
2018-05-24T16:13:08.198Z,88.70
2018-05-24T16:15:36.254Z,88.70
2018-05-24T16:18:04.313Z,89.90
2018-05-24T16:20:33.133Z,85.20
2018-05-24T16:23:01.215Z,85.10
2018-05-24T16:25:29.349Z,86.60
2018-05-24T16:27:57.479Z,87.50
2018-05-24T16:30:25.572Z,87.70
2018-05-24T16:32:53.591Z,87.70
2018-05-24T16:35:21.748Z,88.40
2018-05-24T16:37:50.622Z,89.40
2018-05-24T16:40:20.384Z,89.60
2018-05-24T16:42:48.441Z,88.70
2018-05-24T16:45:16.531Z,88.80
2018-05-24T16:47:44.569Z,87.90
2018-05-24T16:50:13.381Z,93.20
2018-05-24T16:52:42.228Z,94.00
2018-05-24T16:55:11.059Z,94.70
2018-05-24T16:57:39.194Z,94.40
2018-05-24T17:00:08.015Z,94.10
2018-05-24T17:02:36.124Z,94.10
2018-05-24T17:05:04.292Z,93.10
2018-05-24T17:07:32.514Z,93.10
2018-05-24T17:10:01.400Z,92.20
2018-05-24T17:12:30.222Z,91.60
2018-05-24T17:14:59.157Z,91.30
2018-05-24T17:17:27.200Z,91.20
2018-05-24T17:19:55.263Z,91.30
2018-05-24T17:22:23.316Z,91.30
2018-05-24T17:24:51.369Z,90.80
2018-05-24T17:27:20.173Z,90.80
2018-05-24T17:29:48.871Z,90.70
2018-05-24T17:32:16.977Z,90.90
2018-05-24T17:34:45.019Z,91.90
2018-05-24T17:37:13.157Z,93.00
2018-05-24T17:39:41.971Z,94.50
2018-05-24T17:42:10.106Z,94.50
2018-05-24T17:44:38.190Z,94.70
2018-05-24T17:47:06.212Z,94.80
2018-05-24T17:49:34.324Z,95.20
2018-05-24T17:52:02.484Z,95.20
2018-05-24T17:54:30.515Z,95.50
2018-05-24T17:56:58.610Z,95.60
2018-05-24T17:59:26.730Z,95.50
2018-05-24T18:01:55.627Z,95.70
2018-05-24T18:04:24.518Z,95.80
2018-05-24T18:06:53.300Z,95.80
2018-05-24T18:09:22.146Z,95.70
2018-05-24T18:11:51.318Z,95.70
2018-05-24T18:14:19.394Z,95.90
2018-05-24T18:16:47.484Z,95.80
2018-05-24T18:19:16.010Z,96.00
2018-05-24T18:21:44.844Z,96.10
2018-05-24T18:24:12.960Z,96.10
2018-05-24T18:26:41.045Z,96.30
2018-05-24T18:29:09.072Z,96.40
2018-05-24T18:31:37.402Z,96.60
2018-05-24T18:34:06.206Z,96.60
2018-05-24T18:36:34.328Z,96.60
2018-05-24T18:39:02.392Z,96.60
2018-05-24T18:41:30.475Z,96.70
2018-05-24T18:43:58.536Z,97.00
2018-05-24T18:46:26.585Z,97.70
2018-05-24T18:48:54.664Z,97.50
2018-05-24T18:51:22.651Z,97.60
2018-05-24T18:53:50.792Z,97.90
2018-05-24T18:56:18.815Z,98.20
2018-05-24T18:58:46.879Z,98.20
2018-05-24T19:01:14.925Z,98.30
2018-05-24T19:03:42.999Z,98.40
2018-05-24T19:06:11.114Z,98.30
2018-05-24T19:08:39.282Z,98.40
2018-05-24T19:11:07.333Z,98.50
2018-05-24T19:13:35.599Z,98.90
2018-05-24T19:16:04.199Z,98.90
2018-05-24T19:18:32.246Z,99.00
2018-05-24T19:21:00.331Z,99.10
2018-05-24T19:23:28.377Z,99.10
2018-05-24T19:25:56.395Z,99.10
2018-05-24T19:28:24.498Z,99.10
2018-05-24T19:30:53.272Z,99.40
2018-05-24T19:33:21.320Z,99.40
2018-05-24T19:35:49.380Z,99.60
2018-05-24T19:38:17.583Z,99.70
2018-05-24T19:40:45.662Z,99.80
2018-05-24T19:43:13.731Z,99.70
2018-05-24T19:45:42.704Z,99.80
2018-05-24T19:48:10.797Z,99.80
2018-05-24T19:50:38.892Z,99.90
2018-05-24T19:53:07.768Z,99.80
2018-05-24T19:55:35.829Z,99.80
2018-05-24T19:58:03.924Z,99.90
2018-05-24T20:00:32.841Z,99.90
2018-05-24T20:03:01.020Z,99.90
2018-05-24T20:05:29.153Z,99.90
2018-05-24T20:07:57.256Z,99.90
2018-05-24T20:10:25.291Z,99.90
2018-05-24T20:12:53.441Z,99.90
2018-05-24T20:15:21.478Z,99.90
2018-05-24T20:17:50.338Z,99.90
2018-05-24T20:20:19.180Z,99.90
2018-05-24T20:22:47.248Z,99.90
2018-05-24T20:25:15.336Z,99.60
2018-05-24T20:27:43.404Z,99.60
2018-05-24T20:30:11.518Z,99.50
2018-05-24T20:32:40.412Z,99.10
2018-05-24T20:35:08.522Z,99.10
2018-05-24T20:37:36.586Z,98.50
2018-05-24T20:40:04.653Z,98.30
2018-05-24T20:42:32.755Z,98.30
2018-05-24T20:45:00.791Z,98.30
2018-05-24T20:47:28.822Z,98.10
2018-05-24T20:49:56.862Z,97.90
2018-05-24T20:52:24.869Z,98.00
2018-05-24T20:54:52.923Z,98.00
2018-05-24T20:57:21.009Z,98.40
2018-05-24T20:59:49.077Z,98.70
2018-05-24T21:02:17.176Z,99.10
2018-05-24T21:04:46.050Z,99.00
2018-05-24T21:07:14.132Z,99.00
2018-05-24T21:09:42.957Z,99.10
2018-05-24T21:12:11.095Z,99.10
2018-05-24T21:14:39.959Z,99.40
2018-05-24T21:17:08.039Z,99.40
2018-05-24T21:19:36.227Z,99.20
2018-05-24T21:22:05.217Z,99.40
2018-05-24T21:24:33.321Z,99.40
2018-05-24T21:27:01.387Z,99.80
2018-05-24T21:29:29.446Z,99.90
2018-05-24T21:31:58.251Z,99.90
2018-05-24T21:34:27.071Z,99.90
2018-05-24T21:36:55.116Z,99.90
2018-05-24T21:39:23.202Z,99.90
2018-05-24T21:41:51.334Z,99.90
2018-05-24T21:44:20.085Z,99.90
2018-05-24T21:46:48.188Z,99.90
2018-05-24T21:49:16.299Z,99.90
2018-05-24T21:51:44.351Z,99.90
2018-05-24T21:54:13.165Z,99.90
2018-05-24T21:56:42.191Z,99.90
2018-05-24T21:59:10.218Z,99.90
2018-05-24T22:01:38.318Z,99.90
2018-05-24T22:04:06.455Z,99.90
2018-05-24T22:06:35.259Z,99.30
2018-05-24T22:09:03.473Z,99.30
2018-05-24T22:11:31.576Z,99.30
2018-05-24T22:13:59.618Z,99.10
2018-05-24T22:16:27.672Z,99.10
2018-05-24T22:18:55.785Z,98.90
2018-05-24T22:21:23.814Z,98.50
2018-05-24T22:23:51.812Z,98.50
2018-05-24T22:26:19.849Z,98.30
2018-05-24T22:28:47.889Z,98.10
2018-05-24T22:31:16.679Z,98.00
2018-05-24T22:33:45.496Z,97.70
2018-05-24T22:36:13.582Z,97.70
2018-05-24T22:38:41.785Z,98.10
2018-05-24T22:41:10.015Z,97.80
2018-05-24T22:43:38.861Z,97.50
2018-05-24T22:46:06.859Z,97.60
2018-05-24T22:48:35.687Z,97.30
2018-05-24T22:51:03.735Z,97.40
2018-05-24T22:53:31.727Z,97.50
2018-05-24T22:55:59.800Z,97.60
2018-05-24T22:58:27.839Z,97.60
2018-05-24T23:00:55.885Z,97.50
2018-05-24T23:03:23.922Z,97.90
2018-05-24T23:05:51.936Z,97.60
2018-05-24T23:08:20.034Z,97.40
2018-05-24T23:10:48.079Z,97.50
2018-05-24T23:13:16.924Z,97.10
2018-05-24T23:15:44.975Z,97.10
2018-05-24T23:18:13.017Z,97.20
2018-05-24T23:20:41.831Z,97.20
2018-05-24T23:23:09.907Z,97.20
2018-05-24T23:25:37.949Z,97.30
2018-05-24T23:28:06.783Z,97.30
2018-05-24T23:30:34.830Z,97.30
2018-05-24T23:33:02.905Z,97.10
2018-05-24T23:35:31.000Z,97.00
2018-05-24T23:37:59.969Z,97.00
2018-05-24T23:40:28.065Z,97.00
2018-05-24T23:42:56.114Z,96.90
2018-05-24T23:45:24.136Z,97.20
2018-05-24T23:47:52.172Z,97.30
2018-05-24T23:50:20.235Z,97.20
2018-05-24T23:52:49.099Z,97.20
2018-05-24T23:55:17.941Z,97.10
2018-05-24T23:57:46.003Z,97.20
